createdAt,value
2016-12-28T00:03:26.298Z,3.96
2016-12-28T00:14:45.872Z,4.13
2016-12-28T00:26:04.437Z,4.23
2016-12-28T00:37:23.010Z,4.34
2016-12-28T00:48:41.932Z,4.53
2016-12-28T01:00:00.493Z,4.56
2016-12-28T01:11:20.066Z,4.78
2016-12-28T01:22:37.469Z,4.94
2016-12-28T01:33:55.393Z,4.93
2016-12-28T01:45:13.470Z,4.89
2016-12-28T01:56:32.076Z,4.91
2016-12-28T02:07:50.642Z,4.93
2016-12-28T02:19:07.744Z,5.04
2016-12-28T02:30:24.857Z,4.86
2016-12-28T02:41:43.460Z,4.97
2016-12-28T02:53:03.066Z,4.85
2016-12-28T03:04:21.956Z,4.79
2016-12-28T03:15:40.553Z,4.45
2016-12-28T03:26:57.650Z,4.26
2016-12-28T03:38:15.235Z,4.2
2016-12-28T03:49:32.837Z,4.02
2016-12-28T04:00:50.443Z,3.85
2016-12-28T04:12:08.012Z,3.78
2016-12-28T04:23:26.604Z,3.69
2016-12-28T04:34:45.210Z,3.46
2016-12-28T04:46:03.893Z,3.49
2016-12-28T04:57:24.768Z,3.73
2016-12-28T05:08:43.291Z,3.55
2016-12-28T05:20:02.859Z,3.63
2016-12-28T05:31:22.416Z,3.45
2016-12-28T05:42:40.682Z,3.32
2016-12-28T05:54:03.244Z,3.69
2016-12-28T06:05:21.988Z,3.82
2016-12-28T06:16:42.579Z,3.85
2016-12-28T06:28:00.382Z,3.82
2016-12-28T06:39:17.788Z,3.9
2016-12-28T06:50:36.532Z,3.84
2016-12-28T07:01:54.937Z,3.81
2016-12-28T07:13:13.530Z,3.78
2016-12-28T07:24:33.597Z,3.85
2016-12-28T07:35:52.171Z,3.85
2016-12-28T07:47:09.294Z,3.78
2016-12-28T07:58:26.378Z,3.67
2016-12-28T08:09:43.945Z,3.7
2016-12-28T08:21:01.520Z,3.69
2016-12-28T08:32:18.560Z,3.66
2016-12-28T08:43:37.123Z,3.84
2016-12-28T08:54:54.704Z,3.94
2016-12-28T09:06:13.263Z,4.17
2016-12-28T09:17:31.853Z,4.28
2016-12-28T09:28:48.929Z,4.43
2016-12-28T09:40:06.523Z,4.51
2016-12-28T09:51:26.597Z,4.59
2016-12-28T10:02:45.195Z,4.89
2016-12-28T10:14:05.271Z,4.93
2016-12-28T10:25:23.405Z,4.75
2016-12-28T10:36:43.484Z,4.69
2016-12-28T10:48:01.117Z,4.71
2016-12-28T10:59:19.683Z,4.53
2016-12-28T11:10:38.294Z,4.53
2016-12-28T11:21:55.341Z,4.67
2016-12-28T11:33:13.922Z,4.82
2016-12-28T11:44:31.521Z,4.96
2016-12-28T11:55:48.626Z,5.07
2016-12-28T12:07:06.242Z,4.94
2016-12-28T12:18:24.140Z,5.32
2016-12-28T12:29:41.235Z,5.27
2016-12-28T12:40:59.314Z,5.4
2016-12-28T12:52:16.477Z,5.41
2016-12-28T13:03:35.295Z,5.3
2016-12-28T13:14:53.870Z,5.51
2016-12-28T13:26:11.174Z,5.37
2016-12-28T13:37:28.279Z,5.24
2016-12-28T13:48:45.364Z,5.22
2016-12-28T14:00:02.478Z,5.33
2016-12-28T14:11:19.556Z,5.44
2016-12-28T14:22:39.346Z,5.39
2016-12-28T14:34:31.722Z,5.44
2016-12-28T14:45:52.015Z,5.29
2016-12-28T14:58:15.936Z,5.3
2016-12-28T15:10:06.174Z,5.25
2016-12-28T15:21:26.306Z,5.11
2016-12-28T15:32:45.854Z,5.03
2016-12-28T15:44:05.331Z,4.94
2016-12-28T15:55:24.420Z,4.85
2016-12-28T16:06:44.831Z,4.85
2016-12-28T16:19:44.284Z,4.85
2016-12-28T16:31:36.884Z,4.59
2016-12-28T16:42:57.771Z,4.61
2016-12-28T16:54:16.599Z,4.53
2016-12-28T17:05:35.736Z,4.51
2016-12-28T17:16:55.442Z,4.67
2016-12-28T17:28:14.312Z,4.75
2016-12-28T17:39:33.296Z,4.78
2016-12-28T17:50:50.549Z,4.57
2016-12-28T18:02:08.131Z,4.48
2016-12-28T18:13:28.606Z,4.27
2016-12-28T18:24:47.145Z,4.35
2016-12-28T18:36:05.711Z,4.13
2016-12-28T18:47:24.272Z,4.13
2016-12-28T18:58:41.860Z,4.08
2016-12-28T19:10:00.438Z,3.92
2016-12-28T19:21:18.993Z,3.99
2016-12-28T19:32:37.535Z,3.84
2016-12-28T19:43:56.131Z,3.72
2016-12-28T19:55:14.690Z,3.15
2016-12-28T20:06:33.239Z,2.96
2016-12-28T20:17:51.801Z,2.53
2016-12-28T20:29:11.892Z,2.39
2016-12-28T20:40:30.490Z,2.22
2016-12-28T20:51:47.517Z,2.07
2016-12-28T21:03:09.548Z,1.82
2016-12-28T21:14:33.782Z,1.73
2016-12-28T21:25:58.410Z,1.73
2016-12-28T21:37:22.299Z,1.66
2016-12-28T21:48:46.050Z,1.62
2016-12-28T22:00:09.811Z,1.77
2016-12-28T22:11:34.328Z,1.78
2016-12-28T22:22:58.094Z,1.75
2016-12-28T22:34:23.228Z,1.81
2016-12-28T22:45:47.247Z,1.91
2016-12-28T22:57:11.104Z,1.74
2016-12-28T23:08:35.143Z,1.53
2016-12-28T23:19:59.301Z,1.52
2016-12-28T23:31:22.858Z,1.75
2016-12-28T23:42:46.717Z,2.1
2016-12-28T23:54:10.424Z,1.99
